Weather Data

Pearl Creek Farm: 8878 N Farm Road 75, Walnut Grove MO 65770

<== Previous Day (Tuesday 12 Apr 2016) | Next Day (Thursday 14 Apr 2016) ==>

Summary Precipitation Data For Wednesday 13 April 2016

ElementValueUnits
Precipitation0"
Notes(none)
SourcePearl Creek Farm

Summary Temperature Data For Wednesday 13 April 2016

ElementValueUnits
High Temperature63 oF
Low Temperature45 oF
Average Temperature54 oF
High Humidity74 %
Low Humidity34 %
Average Humidity49 %
SourceSpringfield-Branson National Airport (SGF)

Detail Temperature Data For Wednesday 13 April 2016

Date / TimeTemp (F)RH (%)Dew Pt (F)Report Date / TimeSource
2016-04-13 00:52:00 47 54 31.0 2017-12-29 17:00:26.17417 Springfield-Branson National Airport (SGF)
2016-04-13 01:52:00 45 58 31.0 2017-12-29 17:00:26.17417 Springfield-Branson National Airport (SGF)
2016-04-13 02:52:00 48 50 30.0 2017-12-29 17:00:26.17417 Springfield-Branson National Airport (SGF)
2016-04-13 03:52:00 48 48 29.0 2017-12-29 17:00:26.17417 Springfield-Branson National Airport (SGF)
2016-04-13 04:52:00 47 52 30.0 2017-12-29 17:00:26.17417 Springfield-Branson National Airport (SGF)
2016-04-13 05:52:00 47 52 30.0 2017-12-29 17:00:26.17417 Springfield-Branson National Airport (SGF)
2016-04-13 06:52:00 49 50 31.0 2017-12-29 17:00:26.17417 Springfield-Branson National Airport (SGF)
2016-04-13 07:52:00 51 48 32.0 2017-12-29 17:00:26.17417 Springfield-Branson National Airport (SGF)
2016-04-13 08:52:00 56 42 33.0 2017-12-29 17:00:26.17417 Springfield-Branson National Airport (SGF)
2016-04-13 09:52:00 54 47 34.0 2017-12-29 17:00:26.17417 Springfield-Branson National Airport (SGF)
2016-04-13 10:52:00 58 42 35.0 2017-12-29 17:00:26.17417 Springfield-Branson National Airport (SGF)
2016-04-13 11:52:00 58 44 36.0 2017-12-29 17:00:26.17417 Springfield-Branson National Airport (SGF)
2016-04-13 12:52:00 63 35 35.0 2017-12-29 17:00:26.17417 Springfield-Branson National Airport (SGF)
2016-04-13 13:52:00 62 34 33.0 2017-12-29 17:00:26.17417 Springfield-Branson National Airport (SGF)
2016-04-13 14:52:00 61 41 37.0 2017-12-29 17:00:26.17417 Springfield-Branson National Airport (SGF)
2016-04-13 15:52:00 61 35 33.0 2017-12-29 17:00:26.17417 Springfield-Branson National Airport (SGF)
2016-04-13 16:52:00 61 36 34.0 2017-12-29 17:00:26.17417 Springfield-Branson National Airport (SGF)
2016-04-13 17:52:00 60 42 37.0 2017-12-29 17:00:26.17417 Springfield-Branson National Airport (SGF)
2016-04-13 18:52:00 58 46 37.0 2017-12-29 17:00:26.17417 Springfield-Branson National Airport (SGF)
2016-04-13 19:52:00 54 55 38.0 2017-12-29 17:00:26.17417 Springfield-Branson National Airport (SGF)
2016-04-13 20:52:00 53 55 37.0 2017-12-29 17:00:26.17417 Springfield-Branson National Airport (SGF)
2016-04-13 21:52:00 49 69 39.0 2017-12-29 17:00:26.17417 Springfield-Branson National Airport (SGF)
2016-04-13 22:52:00 47 74 39.0 2017-12-29 17:00:26.17417 Springfield-Branson National Airport (SGF)
2016-04-13 23:52:00 47 69 37.0 2017-12-29 17:00:26.17417 Springfield-Branson National Airport (SGF)

A total of 24 rows are displayed.